createdAt,value
2018-07-31T00:00:08.892Z,46.80
2018-07-31T00:00:42.476Z,46.90
2018-07-31T00:01:49.304Z,47.10
2018-07-31T00:02:22.883Z,46.80
2018-07-31T00:02:56.430Z,46.70
2018-07-31T00:03:30.006Z,46.70
2018-07-31T00:04:03.535Z,46.70
2018-07-31T00:04:37.097Z,46.70
2018-07-31T00:05:12.136Z,46.70
2018-07-31T00:05:45.673Z,47.00
2018-07-31T00:06:25.240Z,46.90
2018-07-31T00:06:59.780Z,47.40
2018-07-31T00:07:33.334Z,47.00
2018-07-31T00:08:06.881Z,47.10
2018-07-31T00:08:40.388Z,47.10
2018-07-31T00:09:13.911Z,47.10
2018-07-31T00:09:47.488Z,47.20
2018-07-31T00:10:21.071Z,47.30
2018-07-31T00:10:54.636Z,47.30
2018-07-31T00:11:28.182Z,47.40
2018-07-31T00:12:01.767Z,47.50
2018-07-31T00:12:35.331Z,47.60
2018-07-31T00:13:09.214Z,47.60
2018-07-31T00:13:43.349Z,47.70
2018-07-31T00:14:16.908Z,47.70
2018-07-31T00:14:50.554Z,47.80
2018-07-31T00:15:24.124Z,47.80
2018-07-31T00:15:57.668Z,47.80
2018-07-31T00:16:31.228Z,47.80
2018-07-31T00:17:04.915Z,47.70
2018-07-31T00:17:38.484Z,47.80
2018-07-31T00:18:11.992Z,47.90
2018-07-31T00:18:45.605Z,47.90
2018-07-31T00:19:19.837Z,48.00
2018-07-31T00:19:53.394Z,48.00
2018-07-31T00:20:26.962Z,48.10
2018-07-31T00:21:00.512Z,48.20
2018-07-31T00:21:35.642Z,48.30
2018-07-31T00:22:09.217Z,48.30
2018-07-31T00:22:42.769Z,48.50
2018-07-31T00:23:16.355Z,48.50
2018-07-31T00:23:49.964Z,48.50
2018-07-31T00:24:23.510Z,48.60
2018-07-31T00:24:57.091Z,48.70
2018-07-31T00:25:30.632Z,49.50
2018-07-31T00:26:04.620Z,48.80
2018-07-31T00:26:38.162Z,48.80
2018-07-31T00:27:45.096Z,48.90
2018-07-31T00:28:18.720Z,49.00
2018-07-31T00:28:52.252Z,49.20
2018-07-31T00:29:25.778Z,49.30
2018-07-31T00:29:59.787Z,49.30
2018-07-31T00:30:33.370Z,49.30
2018-07-31T00:31:06.924Z,49.30
2018-07-31T00:31:40.468Z,49.30
2018-07-31T00:32:13.976Z,49.40
2018-07-31T00:32:47.559Z,49.40
2018-07-31T00:33:21.101Z,49.30
2018-07-31T00:33:54.680Z,49.40
2018-07-31T00:34:28.911Z,49.40
2018-07-31T00:35:02.465Z,49.50
2018-07-31T00:35:36.144Z,49.40
2018-07-31T00:36:09.659Z,49.40
2018-07-31T00:36:43.184Z,49.40
2018-07-31T00:37:17.305Z,49.50
2018-07-31T00:37:50.828Z,49.50
2018-07-31T00:38:24.399Z,49.50
2018-07-31T00:38:58.079Z,49.50
2018-07-31T00:39:32.468Z,50.20
2018-07-31T00:40:06.067Z,49.60
2018-07-31T00:40:39.692Z,49.60
2018-07-31T00:41:13.345Z,49.60
2018-07-31T00:41:46.864Z,49.70
2018-07-31T00:42:21.235Z,49.90
2018-07-31T00:42:54.773Z,50.00
2018-07-31T00:44:02.035Z,50.10
2018-07-31T00:44:35.594Z,50.00
2018-07-31T00:45:09.180Z,50.10
2018-07-31T00:45:42.727Z,50.00
2018-07-31T00:46:16.284Z,50.10
2018-07-31T00:46:49.824Z,50.00
2018-07-31T00:47:23.403Z,50.00
2018-07-31T00:47:57.008Z,50.00
2018-07-31T00:48:30.559Z,50.00
2018-07-31T00:49:04.097Z,50.00
2018-07-31T00:49:37.598Z,50.10
2018-07-31T00:50:11.102Z,50.10
2018-07-31T00:50:44.676Z,50.10
2018-07-31T00:51:18.207Z,50.20
2018-07-31T00:51:51.729Z,50.30
2018-07-31T00:52:25.378Z,50.40
2018-07-31T00:52:58.871Z,50.40
2018-07-31T00:53:32.448Z,50.40
2018-07-31T00:54:06.036Z,50.40
2018-07-31T00:54:39.617Z,50.40
2018-07-31T00:55:13.207Z,50.30
2018-07-31T00:55:46.703Z,50.40
2018-07-31T00:56:20.283Z,50.40
2018-07-31T00:56:53.854Z,50.50
2018-07-31T00:57:27.419Z,50.60
2018-07-31T00:58:00.917Z,50.60
2018-07-31T00:58:34.475Z,50.60
2018-07-31T00:59:08.084Z,50.70
2018-07-31T00:59:41.620Z,50.60
2018-07-31T01:00:15.188Z,50.60
2018-07-31T01:00:48.715Z,50.60
2018-07-31T01:01:22.307Z,50.80
2018-07-31T01:01:55.879Z,50.70
2018-07-31T01:02:29.347Z,50.80
2018-07-31T01:03:02.896Z,50.90
2018-07-31T01:03:36.511Z,50.90
2018-07-31T01:04:10.048Z,51.00
2018-07-31T01:04:43.605Z,51.00
2018-07-31T01:05:17.150Z,51.00
2018-07-31T01:05:50.629Z,51.00
2018-07-31T01:06:28.432Z,51.00
2018-07-31T01:07:02.012Z,51.10
2018-07-31T01:07:35.548Z,51.10
2018-07-31T01:08:09.117Z,51.20
2018-07-31T01:08:42.695Z,51.30
2018-07-31T01:09:16.178Z,51.40
2018-07-31T01:09:49.934Z,51.50
2018-07-31T01:10:23.435Z,51.50
2018-07-31T01:10:57.084Z,51.50
2018-07-31T01:11:30.553Z,51.60
2018-07-31T01:12:04.160Z,51.50
2018-07-31T01:12:37.628Z,51.60
2018-07-31T01:13:11.118Z,51.60
2018-07-31T01:13:44.632Z,51.60
2018-07-31T01:14:18.744Z,51.70
2018-07-31T01:14:52.325Z,51.80
2018-07-31T01:15:25.912Z,51.80
2018-07-31T01:15:59.501Z,51.80
2018-07-31T01:16:33.061Z,51.70
2018-07-31T01:17:06.648Z,51.80
2018-07-31T01:17:40.172Z,51.90
2018-07-31T01:18:13.797Z,52.00
2018-07-31T01:18:47.332Z,52.00
2018-07-31T01:19:21.725Z,52.10
2018-07-31T01:19:55.319Z,52.30
2018-07-31T01:20:28.924Z,52.40
2018-07-31T01:21:03.487Z,52.40
2018-07-31T01:21:37.055Z,52.50
2018-07-31T01:22:10.618Z,52.50
2018-07-31T01:22:44.454Z,52.50
2018-07-31T01:23:18.836Z,52.50
2018-07-31T01:23:52.403Z,52.60
2018-07-31T01:24:25.956Z,52.60
2018-07-31T01:24:59.559Z,52.70
2018-07-31T01:25:33.144Z,52.80
2018-07-31T01:26:06.694Z,52.80
2018-07-31T01:26:40.224Z,52.90
2018-07-31T01:27:13.812Z,52.90
2018-07-31T01:27:47.307Z,53.00
2018-07-31T01:28:20.864Z,53.00
2018-07-31T01:28:54.472Z,53.00
2018-07-31T01:29:28.034Z,52.90
2018-07-31T01:30:01.595Z,53.20
2018-07-31T01:30:35.179Z,53.30
2018-07-31T01:31:08.759Z,53.40
2018-07-31T01:31:42.303Z,53.40
2018-07-31T01:32:15.860Z,53.40
2018-07-31T01:32:49.376Z,53.30
2018-07-31T01:33:22.948Z,53.30
2018-07-31T01:33:56.547Z,53.40
2018-07-31T01:34:31.000Z,53.40
2018-07-31T01:35:04.646Z,53.40
2018-07-31T01:35:38.392Z,53.40
2018-07-31T01:36:12.315Z,53.40
2018-07-31T01:36:45.834Z,53.50
2018-07-31T01:37:20.040Z,53.40
2018-07-31T01:37:53.599Z,53.50
2018-07-31T01:38:27.112Z,53.60
2018-07-31T01:39:00.635Z,53.60
2018-07-31T01:39:34.207Z,53.60
2018-07-31T01:40:07.790Z,53.60
2018-07-31T01:40:41.329Z,53.50
2018-07-31T01:41:14.906Z,53.50
2018-07-31T01:41:48.447Z,53.50
2018-07-31T01:42:22.616Z,53.60
2018-07-31T01:42:56.138Z,53.70
2018-07-31T01:43:29.624Z,53.70
2018-07-31T01:44:03.284Z,53.80
2018-07-31T01:44:36.783Z,53.70
2018-07-31T01:45:10.344Z,53.80
2018-07-31T01:45:44.079Z,53.80
2018-07-31T01:46:17.611Z,53.90
2018-07-31T01:46:51.152Z,53.90
2018-07-31T01:47:24.701Z,54.00
2018-07-31T01:47:58.288Z,53.90
2018-07-31T01:48:31.843Z,53.90
2018-07-31T01:49:05.335Z,54.00
2018-07-31T01:49:38.845Z,54.00
2018-07-31T01:50:45.536Z,54.00
2018-07-31T01:51:19.107Z,54.10
2018-07-31T01:51:52.600Z,54.20
2018-07-31T01:52:26.144Z,54.20
2018-07-31T01:52:59.697Z,54.20
2018-07-31T01:53:33.219Z,54.30
2018-07-31T01:54:06.752Z,54.30
2018-07-31T01:54:40.264Z,54.40
2018-07-31T01:55:13.812Z,54.40
2018-07-31T01:55:47.340Z,54.50
2018-07-31T01:56:20.911Z,54.50
2018-07-31T01:56:54.511Z,54.40
2018-07-31T01:57:28.040Z,54.40
2018-07-31T01:58:01.578Z,54.40
2018-07-31T01:58:35.123Z,54.40
2018-07-31T01:59:08.680Z,54.40
2018-07-31T01:59:42.280Z,54.30
2018-07-31T02:00:15.779Z,54.20
2018-07-31T02:00:49.342Z,54.20
2018-07-31T02:01:22.892Z,54.00
2018-07-31T02:01:56.418Z,54.00
2018-07-31T02:02:29.993Z,54.10
2018-07-31T02:03:03.625Z,54.10
2018-07-31T02:03:37.800Z,54.20
2018-07-31T02:04:11.372Z,54.10
2018-07-31T02:04:45.444Z,54.30
2018-07-31T02:05:18.999Z,54.20
2018-07-31T02:05:52.521Z,54.40
2018-07-31T02:06:27.342Z,54.40
2018-07-31T02:07:00.916Z,54.40
2018-07-31T02:07:34.460Z,54.40
2018-07-31T02:08:08.049Z,54.40
2018-07-31T02:08:41.669Z,54.50
2018-07-31T02:09:15.173Z,54.50
2018-07-31T02:09:48.740Z,54.50
2018-07-31T02:10:22.338Z,54.50
2018-07-31T02:10:55.895Z,54.50
2018-07-31T02:12:02.654Z,54.50
2018-07-31T02:12:36.180Z,54.70
2018-07-31T02:13:10.314Z,54.60
2018-07-31T02:13:43.872Z,54.70
2018-07-31T02:14:17.376Z,55.40
2018-07-31T02:14:50.940Z,54.70
2018-07-31T02:15:24.498Z,54.70
2018-07-31T02:15:58.048Z,54.70
2018-07-31T02:16:31.588Z,54.70
2018-07-31T02:17:05.185Z,54.80
2018-07-31T02:17:38.736Z,54.80
2018-07-31T02:18:12.928Z,54.70
2018-07-31T02:18:46.472Z,54.60
2018-07-31T02:19:20.016Z,54.60
2018-07-31T02:19:53.543Z,54.70
2018-07-31T02:20:27.110Z,54.80
2018-07-31T02:21:00.605Z,54.70
2018-07-31T02:21:34.211Z,54.70
2018-07-31T02:22:07.794Z,54.70
2018-07-31T02:22:41.343Z,54.70
2018-07-31T02:23:14.884Z,54.70
2018-07-31T02:23:48.399Z,54.70
2018-07-31T02:24:22.000Z,54.70
2018-07-31T02:25:29.380Z,54.50
2018-07-31T02:26:02.932Z,54.50
2018-07-31T02:26:36.439Z,54.60
2018-07-31T02:27:09.967Z,54.60
2018-07-31T02:27:43.556Z,54.60
2018-07-31T02:28:17.230Z,54.60
2018-07-31T02:28:50.904Z,54.60
2018-07-31T02:29:29.764Z,54.70
2018-07-31T02:30:07.240Z,54.60
2018-07-31T02:30:40.795Z,54.40
2018-07-31T02:31:47.713Z,54.70
2018-07-31T02:32:21.390Z,54.70
2018-07-31T02:32:54.987Z,54.60
2018-07-31T02:33:29.228Z,54.70
2018-07-31T02:34:02.767Z,54.70
2018-07-31T02:34:36.382Z,54.80
2018-07-31T02:35:10.571Z,54.80
2018-07-31T02:35:44.967Z,55.00
2018-07-31T02:36:18.522Z,55.10
2018-07-31T02:36:52.136Z,55.20
2018-07-31T02:37:25.730Z,55.20
2018-07-31T02:37:59.247Z,55.20
2018-07-31T02:38:33.017Z,55.20
2018-07-31T02:39:08.843Z,55.20
2018-07-31T02:39:42.722Z,55.20
2018-07-31T02:40:16.262Z,55.10
2018-07-31T02:40:49.829Z,55.10
2018-07-31T02:41:24.287Z,55.10
2018-07-31T02:41:57.872Z,55.10
2018-07-31T02:43:04.713Z,55.00
2018-07-31T02:43:38.266Z,55.00
2018-07-31T02:44:11.806Z,54.90
2018-07-31T02:44:45.343Z,54.90
2018-07-31T02:45:18.906Z,54.90
2018-07-31T02:45:52.452Z,55.00
2018-07-31T02:46:25.987Z,55.00
2018-07-31T02:46:59.603Z,55.10
2018-07-31T02:47:33.119Z,55.10
2018-07-31T02:48:06.683Z,55.10
2018-07-31T02:48:40.273Z,55.10
2018-07-31T02:49:13.861Z,55.80
2018-07-31T02:49:47.419Z,55.20
2018-07-31T02:50:21.481Z,55.20
2018-07-31T02:50:55.400Z,55.20
2018-07-31T02:51:28.932Z,55.20
2018-07-31T02:52:02.470Z,55.10
2018-07-31T02:52:36.032Z,55.20
2018-07-31T02:53:09.607Z,55.20
2018-07-31T02:53:43.310Z,55.10
2018-07-31T02:54:16.872Z,55.20
2018-07-31T02:54:50.458Z,55.10
2018-07-31T02:55:24.081Z,55.10
2018-07-31T02:55:57.653Z,55.10
2018-07-31T02:56:31.153Z,55.20
2018-07-31T02:57:04.779Z,55.20
2018-07-31T02:57:38.643Z,55.20
2018-07-31T02:58:12.284Z,55.20
2018-07-31T02:58:45.851Z,55.30
2018-07-31T02:59:19.375Z,55.30
2018-07-31T02:59:52.931Z,55.30
2018-07-31T03:00:26.451Z,55.20
2018-07-31T03:01:00.017Z,55.30
2018-07-31T03:01:33.666Z,55.30
2018-07-31T03:02:07.192Z,55.30
2018-07-31T03:02:40.695Z,55.40
2018-07-31T03:03:15.175Z,55.30
2018-07-31T03:03:48.721Z,55.30
2018-07-31T03:04:22.733Z,55.30
2018-07-31T03:04:56.350Z,55.40
2018-07-31T03:05:29.859Z,55.40
2018-07-31T03:06:03.484Z,55.30
2018-07-31T03:06:37.048Z,55.40
2018-07-31T03:07:43.817Z,55.40
2018-07-31T03:08:17.437Z,55.50
2018-07-31T03:08:51.124Z,55.40
2018-07-31T03:09:24.676Z,55.40
2018-07-31T03:09:58.503Z,55.40
2018-07-31T03:10:32.073Z,55.40
2018-07-31T03:11:06.063Z,55.50
2018-07-31T03:11:39.648Z,55.50
2018-07-31T03:12:13.369Z,55.60
2018-07-31T03:12:46.966Z,55.50
2018-07-31T03:13:20.538Z,55.50
2018-07-31T03:13:54.412Z,55.50
2018-07-31T03:14:28.138Z,55.50
2018-07-31T03:15:03.312Z,55.50
2018-07-31T03:15:36.844Z,55.50
2018-07-31T03:16:10.376Z,55.50
2018-07-31T03:16:44.841Z,55.60
2018-07-31T03:17:18.368Z,55.80
2018-07-31T03:17:56.272Z,55.60
2018-07-31T03:18:32.616Z,55.60
2018-07-31T03:19:09.889Z,55.70
2018-07-31T03:19:45.948Z,55.60
2018-07-31T03:20:24.398Z,55.60
2018-07-31T03:21:13.833Z,55.60
2018-07-31T03:21:49.666Z,55.80
2018-07-31T03:22:41.606Z,55.80
2018-07-31T03:23:22.838Z,55.80
2018-07-31T03:24:34.147Z,56.00
2018-07-31T03:25:08.071Z,56.00
2018-07-31T03:25:41.644Z,55.80
2018-07-31T03:26:15.822Z,56.00
2018-07-31T03:26:49.353Z,56.00
2018-07-31T03:27:22.879Z,56.00
2018-07-31T03:27:56.446Z,55.90
2018-07-31T03:28:30.008Z,55.90
2018-07-31T03:29:03.544Z,55.90
2018-07-31T03:29:37.100Z,55.80
2018-07-31T03:30:10.678Z,55.80
2018-07-31T03:30:44.676Z,55.90
2018-07-31T03:31:18.189Z,55.90
2018-07-31T03:32:25.021Z,56.10
2018-07-31T03:32:58.592Z,56.00
2018-07-31T03:33:32.137Z,56.00
2018-07-31T03:34:39.226Z,56.50
2018-07-31T03:35:12.764Z,57.00
2018-07-31T03:35:46.327Z,56.40
2018-07-31T03:36:19.855Z,56.40
2018-07-31T03:36:53.945Z,56.30
2018-07-31T03:37:27.460Z,56.30
2018-07-31T03:38:00.958Z,56.30
2018-07-31T03:38:34.504Z,56.20
2018-07-31T03:39:09.452Z,56.20
2018-07-31T03:39:42.984Z,56.20
2018-07-31T03:40:16.547Z,56.20
2018-07-31T03:40:50.061Z,56.20
2018-07-31T03:41:23.563Z,56.10
2018-07-31T03:41:57.090Z,56.20
2018-07-31T03:42:30.600Z,56.20
2018-07-31T03:43:04.759Z,56.20
2018-07-31T03:44:11.511Z,56.30
2018-07-31T03:44:45.124Z,57.00
2018-07-31T03:45:19.471Z,56.20
2018-07-31T03:45:53.316Z,56.20
2018-07-31T03:46:30.474Z,56.20
2018-07-31T03:47:04.017Z,56.30
2018-07-31T03:47:37.557Z,56.30
2018-07-31T03:48:47.703Z,56.30
2018-07-31T03:49:21.328Z,56.30
2018-07-31T03:49:55.679Z,56.30
2018-07-31T03:50:30.599Z,56.30
2018-07-31T03:51:04.161Z,56.20
2018-07-31T03:51:37.732Z,56.90
2018-07-31T03:52:11.235Z,56.30
2018-07-31T03:52:45.211Z,56.30
2018-07-31T03:53:18.805Z,56.30
2018-07-31T03:53:52.869Z,56.30
2018-07-31T03:54:26.423Z,56.30
2018-07-31T03:55:00.054Z,56.40
2018-07-31T03:55:33.594Z,56.50
2018-07-31T03:56:07.135Z,56.40
2018-07-31T03:56:40.713Z,56.50
2018-07-31T03:57:14.312Z,56.50
2018-07-31T03:57:47.906Z,56.50
2018-07-31T03:58:21.488Z,56.50
2018-07-31T03:58:54.970Z,56.50
2018-07-31T03:59:28.519Z,56.50
2018-07-31T04:01:10.181Z,56.70
2018-07-31T04:01:43.825Z,56.60
2018-07-31T04:02:18.056Z,56.60
2018-07-31T04:02:51.617Z,56.60
2018-07-31T04:03:25.181Z,56.60
2018-07-31T04:03:58.776Z,56.60
2018-07-31T04:04:32.332Z,56.60
2018-07-31T04:05:05.963Z,56.60
2018-07-31T04:05:39.531Z,56.70
2018-07-31T04:06:13.175Z,56.70
2018-07-31T04:06:46.793Z,56.70
2018-07-31T04:07:20.338Z,56.70
2018-07-31T04:07:53.868Z,56.70
2018-07-31T04:08:27.367Z,56.70
2018-07-31T04:09:00.890Z,56.70
2018-07-31T04:09:34.477Z,56.80
2018-07-31T04:10:08.106Z,56.80
2018-07-31T04:10:41.728Z,56.80
2018-07-31T04:11:15.325Z,56.80
2018-07-31T04:11:48.886Z,56.70
2018-07-31T04:12:22.384Z,56.70
2018-07-31T04:12:55.890Z,56.80
2018-07-31T04:13:29.465Z,56.90
2018-07-31T04:14:03.476Z,56.90
2018-07-31T04:14:37.004Z,56.80
2018-07-31T04:15:10.528Z,56.90
2018-07-31T04:15:44.091Z,57.60
2018-07-31T04:16:17.652Z,56.90
2018-07-31T04:16:51.201Z,56.90
2018-07-31T04:17:24.773Z,56.90
2018-07-31T04:17:58.891Z,56.90
2018-07-31T04:18:32.405Z,56.80
2018-07-31T04:19:05.957Z,56.90
2018-07-31T04:19:39.504Z,56.90
2018-07-31T04:20:13.063Z,56.90
2018-07-31T04:20:46.623Z,56.90
2018-07-31T04:21:20.213Z,56.90
2018-07-31T04:21:53.716Z,57.10
2018-07-31T04:22:27.284Z,56.90
2018-07-31T04:23:00.824Z,57.00
2018-07-31T04:23:34.346Z,56.90
2018-07-31T04:24:07.906Z,57.00
2018-07-31T04:24:41.407Z,56.90
2018-07-31T04:25:14.976Z,56.90
2018-07-31T04:25:48.527Z,56.90
2018-07-31T04:26:22.108Z,56.90
2018-07-31T04:26:56.098Z,56.90
2018-07-31T04:27:29.625Z,56.90
2018-07-31T04:28:03.252Z,56.90
2018-07-31T04:28:36.763Z,56.80
2018-07-31T04:29:10.301Z,56.90
2018-07-31T04:29:44.644Z,56.90
2018-07-31T04:30:18.164Z,56.90
2018-07-31T04:30:52.399Z,56.90
2018-07-31T04:31:59.142Z,57.20
2018-07-31T04:32:32.708Z,56.90
2018-07-31T04:33:06.300Z,57.00
2018-07-31T04:33:39.836Z,57.10
2018-07-31T04:34:46.538Z,57.30
2018-07-31T04:35:20.100Z,57.00
2018-07-31T04:35:53.700Z,57.10
2018-07-31T04:36:27.222Z,57.10
2018-07-31T04:37:00.762Z,57.00
2018-07-31T04:37:34.372Z,57.20
2018-07-31T04:38:07.904Z,57.00
2018-07-31T04:38:41.522Z,57.10
2018-07-31T04:39:15.527Z,57.30
2018-07-31T04:39:49.120Z,57.00
2018-07-31T04:40:22.653Z,57.20
2018-07-31T04:40:56.262Z,57.20
2018-07-31T04:41:29.790Z,57.30
2018-07-31T04:42:03.396Z,57.30
2018-07-31T04:42:37.021Z,57.30
2018-07-31T04:43:10.575Z,57.40
2018-07-31T04:43:44.127Z,57.40
2018-07-31T04:44:18.162Z,57.30
2018-07-31T04:44:51.711Z,57.20
2018-07-31T04:45:25.206Z,57.30
2018-07-31T04:45:58.732Z,57.40
2018-07-31T04:46:32.334Z,57.30
2018-07-31T04:47:05.875Z,57.40
2018-07-31T04:47:39.956Z,57.20
2018-07-31T04:48:13.459Z,57.40
2018-07-31T04:48:46.981Z,57.30
2018-07-31T04:49:21.243Z,57.40
2018-07-31T04:49:54.813Z,58.00
2018-07-31T04:50:28.415Z,57.20
2018-07-31T04:51:01.970Z,57.40
2018-07-31T04:51:35.511Z,57.20
2018-07-31T04:52:08.984Z,57.20
2018-07-31T04:52:42.808Z,57.00
2018-07-31T04:53:16.418Z,57.00
2018-07-31T04:54:23.132Z,57.50
2018-07-31T04:54:57.228Z,56.90
2018-07-31T04:55:30.942Z,56.80
2018-07-31T04:56:04.556Z,57.10
2018-07-31T04:56:38.038Z,56.90
2018-07-31T04:57:11.538Z,56.90
2018-07-31T04:57:45.596Z,57.00
2018-07-31T04:58:20.109Z,57.00
2018-07-31T04:58:53.691Z,57.00
2018-07-31T04:59:27.200Z,57.00
2018-07-31T05:00:00.800Z,57.00
2018-07-31T05:00:34.332Z,57.00
2018-07-31T05:01:07.945Z,57.10
2018-07-31T05:01:41.555Z,57.20
2018-07-31T05:02:15.116Z,57.20
2018-07-31T05:02:48.621Z,57.20
2018-07-31T05:03:22.163Z,57.10
2018-07-31T05:03:55.664Z,57.10
2018-07-31T05:04:30.408Z,57.20
2018-07-31T05:05:04.161Z,57.40
2018-07-31T05:05:37.730Z,57.20
2018-07-31T05:06:11.260Z,57.10
2018-07-31T05:06:44.798Z,57.10
2018-07-31T05:07:18.331Z,57.20
2018-07-31T05:07:51.932Z,57.40
2018-07-31T05:08:25.747Z,57.40
2018-07-31T05:08:59.289Z,57.20
2018-07-31T05:09:32.900Z,57.30
2018-07-31T05:10:09.393Z,57.40
2018-07-31T05:10:42.948Z,57.10
2018-07-31T05:11:16.581Z,57.60
2018-07-31T05:11:50.757Z,57.90
2018-07-31T05:12:24.276Z,57.80
2018-07-31T05:12:57.800Z,57.90
2018-07-31T05:13:31.388Z,58.10
2018-07-31T05:14:05.364Z,58.00
2018-07-31T05:14:38.895Z,57.80
2018-07-31T05:15:12.520Z,58.00
2018-07-31T05:15:46.067Z,58.10
2018-07-31T05:16:20.352Z,58.20
2018-07-31T05:16:53.905Z,58.20
2018-07-31T05:17:27.521Z,58.00
2018-07-31T05:18:01.049Z,58.30
2018-07-31T05:18:34.535Z,58.40
2018-07-31T05:19:08.112Z,58.40
2018-07-31T05:20:14.795Z,58.70
2018-07-31T05:20:48.382Z,58.20
2018-07-31T05:21:21.925Z,58.10
2018-07-31T05:21:55.505Z,58.30
2018-07-31T05:22:28.992Z,58.30
2018-07-31T05:23:03.051Z,58.30
2018-07-31T05:23:36.573Z,58.40
2018-07-31T05:24:10.117Z,58.50
2018-07-31T05:24:43.694Z,59.20
2018-07-31T05:25:17.283Z,58.60
2018-07-31T05:25:51.402Z,58.60
2018-07-31T05:26:25.208Z,58.70
2018-07-31T05:26:58.780Z,58.80
2018-07-31T05:27:32.616Z,58.90
2018-07-31T05:28:06.193Z,58.90
2018-07-31T05:28:39.721Z,59.00
2018-07-31T05:29:13.263Z,59.10
2018-07-31T05:29:46.810Z,59.20
2018-07-31T05:30:20.322Z,59.30
2018-07-31T05:30:53.876Z,59.40
2018-07-31T05:31:27.397Z,59.40
2018-07-31T05:32:00.981Z,59.40
2018-07-31T05:32:35.393Z,59.50
2018-07-31T05:33:08.816Z,59.40
2018-07-31T05:33:42.333Z,59.60
2018-07-31T05:34:17.136Z,59.40
2018-07-31T05:34:51.215Z,59.40
2018-07-31T05:36:31.544Z,59.50
2018-07-31T05:37:05.152Z,59.30
2018-07-31T05:37:39.879Z,59.40
2018-07-31T05:38:13.381Z,59.50
2018-07-31T05:38:46.937Z,59.30
2018-07-31T05:39:20.476Z,59.40
2018-07-31T05:39:54.870Z,59.50
2018-07-31T05:40:28.356Z,59.40
2018-07-31T05:41:01.931Z,59.20
2018-07-31T05:41:35.447Z,59.20
2018-07-31T05:42:08.948Z,59.20
2018-07-31T05:42:42.475Z,59.10
2018-07-31T05:44:22.381Z,59.00
2018-07-31T05:44:55.963Z,58.50
2018-07-31T05:45:29.513Z,58.50
2018-07-31T05:46:03.124Z,58.40
2018-07-31T05:46:36.666Z,58.00
2018-07-31T05:47:10.285Z,57.60
2018-07-31T05:47:43.880Z,57.40
2018-07-31T05:48:17.455Z,57.40
2018-07-31T05:48:51.544Z,57.20
2018-07-31T05:49:25.080Z,57.40
2018-07-31T05:49:58.568Z,57.50
2018-07-31T05:50:32.110Z,57.40
2018-07-31T05:51:06.307Z,57.20
2018-07-31T05:51:39.872Z,57.40
2018-07-31T05:52:13.450Z,57.20
2018-07-31T05:52:46.980Z,57.40
2018-07-31T05:53:20.533Z,57.30
2018-07-31T05:54:27.268Z,57.50
2018-07-31T05:55:00.813Z,56.70
2018-07-31T05:55:34.420Z,56.90
2018-07-31T05:56:07.974Z,57.00
2018-07-31T05:57:15.619Z,57.50
2018-07-31T05:57:49.196Z,57.00
2018-07-31T05:58:22.812Z,56.90
2018-07-31T05:58:56.466Z,56.90
2018-07-31T05:59:30.034Z,57.00
2018-07-31T06:00:04.392Z,57.10
2018-07-31T06:00:37.973Z,57.10
2018-07-31T06:01:11.463Z,57.00
2018-07-31T06:01:44.951Z,56.80
2018-07-31T06:02:19.685Z,56.90
2018-07-31T06:02:53.255Z,56.80
2018-07-31T06:03:26.887Z,57.10
2018-07-31T06:04:00.455Z,57.00
2018-07-31T06:04:34.012Z,57.10
2018-07-31T06:05:07.635Z,56.90
2018-07-31T06:05:41.567Z,57.20
2018-07-31T06:06:15.221Z,57.20
2018-07-31T06:06:48.912Z,57.50
2018-07-31T06:07:22.736Z,57.20
2018-07-31T06:07:56.287Z,57.10
2018-07-31T06:08:29.835Z,56.90
2018-07-31T06:09:03.522Z,57.10
2018-07-31T06:09:37.073Z,57.00
2018-07-31T06:10:10.573Z,57.00
2018-07-31T06:10:44.759Z,57.10
2018-07-31T06:11:18.430Z,57.10
2018-07-31T06:11:52.019Z,57.10
2018-07-31T06:12:25.575Z,57.20
2018-07-31T06:12:59.172Z,57.30
2018-07-31T06:13:32.743Z,57.40
2018-07-31T06:14:06.571Z,57.30
2018-07-31T06:14:40.106Z,57.10
2018-07-31T06:15:13.622Z,57.40
2018-07-31T06:15:47.184Z,57.50
2018-07-31T06:16:20.760Z,57.50
2018-07-31T06:16:54.374Z,57.20
2018-07-31T06:17:27.875Z,57.00
2018-07-31T06:18:01.381Z,56.90
2018-07-31T06:18:35.010Z,56.90
2018-07-31T06:19:08.756Z,57.00
2018-07-31T06:19:42.380Z,56.90
2018-07-31T06:20:16.995Z,57.40
2018-07-31T06:20:50.544Z,57.20
2018-07-31T06:21:24.099Z,57.00
2018-07-31T06:21:57.652Z,56.70
2018-07-31T06:22:31.240Z,56.90
2018-07-31T06:23:04.854Z,57.10
2018-07-31T06:23:39.215Z,57.10
2018-07-31T06:24:13.380Z,57.30
2018-07-31T06:24:47.435Z,57.20
2018-07-31T06:25:21.007Z,57.30
2018-07-31T06:25:54.624Z,57.20
2018-07-31T06:26:28.106Z,57.30
2018-07-31T06:27:01.712Z,57.40
2018-07-31T06:27:35.279Z,57.40
2018-07-31T06:28:10.557Z,57.40
2018-07-31T06:28:45.076Z,57.50
2018-07-31T06:29:19.022Z,56.80
2018-07-31T06:29:52.688Z,57.40
2018-07-31T06:30:26.244Z,57.30
2018-07-31T06:30:59.842Z,57.10
2018-07-31T06:31:33.977Z,56.90
2018-07-31T06:32:07.823Z,56.80
2018-07-31T06:32:41.844Z,56.90
2018-07-31T06:33:15.364Z,56.90
2018-07-31T06:33:49.204Z,56.90
2018-07-31T06:34:22.772Z,56.90
2018-07-31T06:36:03.341Z,57.50
2018-07-31T06:36:37.491Z,56.90
2018-07-31T06:37:10.981Z,56.80
2018-07-31T06:37:45.347Z,56.90
2018-07-31T06:38:18.904Z,56.80
2018-07-31T06:38:53.223Z,56.70
2018-07-31T06:39:26.772Z,56.60
2018-07-31T06:40:00.317Z,56.60
2018-07-31T06:40:34.413Z,56.50
2018-07-31T06:41:08.232Z,56.60
2018-07-31T06:41:41.769Z,56.60
2018-07-31T06:42:15.302Z,56.60
2018-07-31T06:42:49.694Z,56.70
2018-07-31T06:43:23.335Z,56.60
2018-07-31T06:43:56.913Z,56.50
2018-07-31T06:44:30.483Z,56.50
2018-07-31T06:45:04.431Z,56.60
2018-07-31T06:45:37.960Z,56.60
2018-07-31T06:46:12.201Z,56.50
2018-07-31T06:46:45.723Z,56.50
2018-07-31T06:47:19.327Z,56.60
2018-07-31T06:47:52.853Z,56.50
2018-07-31T06:48:27.040Z,56.50
2018-07-31T06:49:00.588Z,57.30
2018-07-31T06:49:34.124Z,56.60
2018-07-31T06:50:07.764Z,56.50
2018-07-31T06:50:41.264Z,56.50
2018-07-31T06:51:14.836Z,56.60
2018-07-31T06:51:48.395Z,56.60
2018-07-31T06:52:21.922Z,56.50
2018-07-31T06:52:55.444Z,56.50
2018-07-31T06:53:29.030Z,56.40
2018-07-31T06:54:02.574Z,56.60
2018-07-31T06:54:36.657Z,56.60
2018-07-31T06:55:10.208Z,56.50
2018-07-31T06:55:43.751Z,56.40
2018-07-31T06:56:17.282Z,56.40
2018-07-31T06:56:50.921Z,56.40
2018-07-31T06:57:24.413Z,56.40
2018-07-31T06:57:57.986Z,56.50
2018-07-31T06:58:31.543Z,56.50
2018-07-31T06:59:05.088Z,56.30
2018-07-31T06:59:38.657Z,56.40
2018-07-31T07:00:12.213Z,56.50
2018-07-31T07:00:45.752Z,56.50
2018-07-31T07:01:19.352Z,56.50
2018-07-31T07:01:52.996Z,56.30
2018-07-31T07:02:26.564Z,56.10
2018-07-31T07:03:33.376Z,56.20
2018-07-31T07:04:06.923Z,56.00
2018-07-31T07:04:40.462Z,56.00
2018-07-31T07:05:14.006Z,56.00
2018-07-31T07:05:47.548Z,56.00
2018-07-31T07:06:21.063Z,56.00
2018-07-31T07:06:54.573Z,56.00
2018-07-31T07:07:28.144Z,56.00
2018-07-31T07:08:01.670Z,56.00
2018-07-31T07:08:36.028Z,56.00
2018-07-31T07:09:10.704Z,55.90
2018-07-31T07:09:44.895Z,55.90
2018-07-31T07:10:19.197Z,55.70
2018-07-31T07:10:52.740Z,55.60
2018-07-31T07:11:26.228Z,55.60
2018-07-31T07:11:59.763Z,55.50
2018-07-31T07:12:33.355Z,55.50
2018-07-31T07:13:06.988Z,55.50
2018-07-31T07:13:41.228Z,55.60
2018-07-31T07:14:14.800Z,55.60
2018-07-31T07:14:48.428Z,55.50
2018-07-31T07:15:22.002Z,55.50
2018-07-31T07:15:55.575Z,55.50
2018-07-31T07:16:29.097Z,55.60
2018-07-31T07:17:02.700Z,55.40
2018-07-31T07:17:36.239Z,55.40
2018-07-31T07:18:09.759Z,55.60
2018-07-31T07:18:43.834Z,55.70
2018-07-31T07:19:17.414Z,55.50
2018-07-31T07:19:50.954Z,55.40
2018-07-31T07:20:24.515Z,55.40
2018-07-31T07:20:58.128Z,55.30
2018-07-31T07:21:31.775Z,55.30
2018-07-31T07:22:05.374Z,55.20
2018-07-31T07:22:38.964Z,55.30
2018-07-31T07:23:12.504Z,55.30
2018-07-31T07:23:46.113Z,55.30
2018-07-31T07:24:19.707Z,55.30
2018-07-31T07:24:53.755Z,55.20
2018-07-31T07:25:27.343Z,55.20
2018-07-31T07:26:01.679Z,55.20
2018-07-31T07:26:35.262Z,55.30
2018-07-31T07:27:08.816Z,55.30
2018-07-31T07:27:42.381Z,55.30
2018-07-31T07:28:15.946Z,55.10
2018-07-31T07:28:49.522Z,55.00
2018-07-31T07:29:23.018Z,55.00
2018-07-31T07:29:56.828Z,54.90
2018-07-31T07:30:30.421Z,54.90
2018-07-31T07:31:04.010Z,54.80